createdAt,value
2022-12-17T00:05:26.795Z,-3.27
2022-12-17T00:11:05.962Z,-3.23
2022-12-17T00:16:45.353Z,-3.24
2022-12-17T00:22:24.741Z,-3.28
2022-12-17T00:28:04.602Z,-3.22
2022-12-17T00:33:43.803Z,-3.30
2022-12-17T00:39:22.975Z,-3.26
2022-12-17T00:45:02.183Z,-3.34
2022-12-17T00:50:41.305Z,-3.38
2022-12-17T00:56:20.631Z,-3.50
2022-12-17T01:02:00.143Z,-3.49
2022-12-17T01:07:39.241Z,-3.41
2022-12-17T01:13:18.496Z,-3.50
2022-12-17T01:18:57.861Z,-3.47
2022-12-17T01:24:37.085Z,-3.38
2022-12-17T01:30:16.433Z,-3.31
2022-12-17T01:35:55.730Z,-3.29
2022-12-17T01:41:36.015Z,-3.29
2022-12-17T01:47:15.133Z,-3.26
2022-12-17T01:52:54.310Z,-3.17
2022-12-17T01:58:33.553Z,-3.19
2022-12-17T02:04:13.423Z,-3.20
2022-12-17T02:10:03.625Z,-3.24
2022-12-17T02:15:59.334Z,-3.14
2022-12-17T02:21:39.773Z,-3.26
2022-12-17T02:27:25.466Z,-3.25
2022-12-17T02:33:07.605Z,-3.14
2022-12-17T02:38:49.376Z,-3.10
2022-12-17T02:44:30.448Z,-3.04
2022-12-17T02:50:12.208Z,-3.00
2022-12-17T02:55:52.872Z,-3.07
2022-12-17T03:01:33.459Z,-3.17
2022-12-17T03:07:15.093Z,-3.21
2022-12-17T03:12:55.286Z,-3.24
2022-12-17T03:18:34.582Z,-3.22
2022-12-17T03:24:13.718Z,-3.15
2022-12-17T03:29:52.870Z,-3.12
2022-12-17T03:35:32.428Z,-3.15
2022-12-17T03:41:11.603Z,-3.18
2022-12-17T03:46:51.085Z,-3.33
2022-12-17T03:52:30.551Z,-3.26
2022-12-17T03:58:09.917Z,-3.22
2022-12-17T04:03:49.235Z,-3.29
2022-12-17T04:09:28.362Z,-3.25
2022-12-17T04:15:07.643Z,-3.25
2022-12-17T04:20:47.088Z,-3.16
2022-12-17T04:26:26.287Z,-2.95
2022-12-17T04:32:05.378Z,-2.92
2022-12-17T04:37:44.596Z,-3.05
2022-12-17T04:43:25.201Z,-3.07
2022-12-17T04:49:04.533Z,-3.13
2022-12-17T04:54:43.700Z,-2.95
2022-12-17T05:00:23.453Z,-2.99
2022-12-17T05:06:03.248Z,-2.94
2022-12-17T05:11:42.599Z,-2.88
2022-12-17T05:17:21.961Z,-2.86
2022-12-17T05:23:01.054Z,-2.67
2022-12-17T05:28:40.236Z,-2.67
2022-12-17T05:34:19.536Z,-2.73
2022-12-17T05:39:58.856Z,-2.82
2022-12-17T05:45:38.182Z,-2.92
2022-12-17T05:51:17.582Z,-2.88
2022-12-17T05:56:57.075Z,-2.75
2022-12-17T06:02:36.277Z,-2.80
2022-12-17T06:08:27.179Z,-2.84
2022-12-17T06:14:06.552Z,-2.72
2022-12-17T06:19:45.861Z,-2.74
2022-12-17T06:25:25.276Z,-2.91
2022-12-17T06:38:37.001Z,-2.93
2022-12-17T06:44:16.472Z,-2.91
2022-12-17T06:50:01.087Z,-2.95
2022-12-17T06:55:40.950Z,-2.97
2022-12-17T07:01:20.360Z,-2.98
2022-12-17T07:06:59.443Z,-2.91
2022-12-17T07:12:38.744Z,-2.89
2022-12-17T07:18:22.986Z,-2.80
2022-12-17T07:24:02.706Z,-2.80
2022-12-17T07:29:41.987Z,-2.85
2022-12-17T07:35:21.430Z,-2.78
2022-12-17T07:41:01.228Z,-2.79
2022-12-17T07:46:40.711Z,-2.76
2022-12-17T07:52:19.858Z,-2.75
2022-12-17T07:57:59.425Z,-2.77
2022-12-17T08:03:39.226Z,-2.80
2022-12-17T08:09:19.229Z,-2.79
2022-12-17T08:14:58.377Z,-2.83
2022-12-17T08:20:37.710Z,-2.73
2022-12-17T08:26:17.184Z,-2.70
2022-12-17T08:31:56.398Z,-2.61
2022-12-17T08:37:46.617Z,-2.66
2022-12-17T08:43:30.980Z,-2.52
2022-12-17T08:49:10.889Z,-2.09
2022-12-17T08:54:50.286Z,-2.04
2022-12-17T09:00:30.122Z,-2.06
2022-12-17T09:06:11.005Z,-2.04
2022-12-17T09:11:50.220Z,-2.04
2022-12-17T09:17:29.838Z,-2.04
2022-12-17T09:23:09.050Z,-2.13
2022-12-17T09:28:48.357Z,-2.06
2022-12-17T09:34:27.797Z,-2.12
2022-12-17T09:40:07.092Z,-2.05
2022-12-17T09:45:53.865Z,-2.02
2022-12-17T09:51:59.303Z,-1.84
2022-12-17T09:57:46.610Z,-1.79
2022-12-17T10:03:39.537Z,-1.72
2022-12-17T10:09:28.097Z,-1.67
2022-12-17T10:15:07.389Z,-1.59
2022-12-17T10:20:55.076Z,-1.63
2022-12-17T10:26:44.401Z,-1.55
2022-12-17T10:32:34.234Z,-1.50
2022-12-17T10:38:13.592Z,-1.35
2022-12-17T10:43:57.414Z,-1.27
2022-12-17T10:49:39.382Z,-1.15
2022-12-17T10:55:24.316Z,-1.04
2022-12-17T11:01:06.707Z,-1.15
2022-12-17T11:06:49.723Z,-1.02
2022-12-17T11:12:32.064Z,-1.17
2022-12-17T11:18:12.056Z,-0.49
2022-12-17T11:23:54.839Z,-0.24
2022-12-17T11:29:34.209Z,-0.35
2022-12-17T11:35:35.337Z,-0.39
2022-12-17T11:41:26.528Z,-0.48
2022-12-17T11:47:30.875Z,-0.59
2022-12-17T11:53:28.190Z,-0.65
2022-12-17T11:59:18.571Z,-0.59
2022-12-17T12:05:10.041Z,-0.62
2022-12-17T12:10:59.573Z,-0.69
2022-12-17T12:16:52.154Z,-0.48
2022-12-17T12:22:38.470Z,-0.17
2022-12-17T12:28:56.302Z,-0.04
2022-12-17T12:34:51.194Z,-0.17
2022-12-17T12:40:51.411Z,-0.33
2022-12-17T12:46:52.938Z,-0.47
2022-12-17T12:52:42.314Z,-0.55
2022-12-17T12:58:39.467Z,-0.29
2022-12-17T13:04:21.725Z,-0.38
2022-12-17T13:09:51.054Z,-0.24
2022-12-17T13:15:36.343Z,-0.35
2022-12-17T13:21:06.210Z,-0.38
2022-12-17T13:26:39.044Z,-0.41
2022-12-17T13:32:26.011Z,-0.48
2022-12-17T13:37:55.687Z,-0.68
2022-12-17T13:43:19.715Z,-0.77
2022-12-17T13:48:41.978Z,-0.77
2022-12-17T13:54:04.542Z,-0.64
2022-12-17T13:59:25.474Z,-0.69
2022-12-17T14:04:52.906Z,0.90
2022-12-17T14:10:18.470Z,1.34
2022-12-17T14:15:44.664Z,0.94
2022-12-17T14:21:05.934Z,0.68
2022-12-17T14:26:26.781Z,0.38
2022-12-17T14:32:00.489Z,0.86
2022-12-17T14:37:24.602Z,0.64
2022-12-17T14:42:46.022Z,0.34
2022-12-17T14:48:16.110Z,0.20
2022-12-17T14:53:37.219Z,0.10
2022-12-17T14:58:58.156Z,-0.06
2022-12-17T15:04:20.067Z,-0.14
2022-12-17T15:09:42.262Z,-0.22
2022-12-17T15:15:03.705Z,-0.35
2022-12-17T15:20:24.542Z,-0.21
2022-12-17T15:25:47.484Z,-0.16
2022-12-17T15:31:14.093Z,-0.21
2022-12-17T15:36:34.945Z,-0.29
2022-12-17T15:42:14.452Z,-0.39
2022-12-17T15:47:35.492Z,-0.44
2022-12-17T15:52:56.306Z,-0.67
2022-12-17T15:58:19.168Z,-0.93
2022-12-17T16:03:39.870Z,-1.02
2022-12-17T16:09:00.609Z,-1.08
2022-12-17T16:14:22.787Z,-1.13
2022-12-17T16:19:43.843Z,-1.17
2022-12-17T16:25:05.244Z,-1.34
2022-12-17T16:30:25.892Z,-1.25
2022-12-17T16:35:51.780Z,-1.26
2022-12-17T16:41:14.483Z,-1.15
2022-12-17T16:46:38.794Z,-1.20
2022-12-17T16:51:59.670Z,-1.10
2022-12-17T16:57:20.479Z,-0.97
2022-12-17T17:02:42.479Z,-0.87
2022-12-17T17:08:04.696Z,-1.13
2022-12-17T17:13:25.258Z,-1.18
2022-12-17T17:18:46.514Z,-1.12
2022-12-17T17:24:21.223Z,-1.05
2022-12-17T17:29:42.917Z,-1.03
2022-12-17T17:35:04.565Z,-1.08
2022-12-17T17:40:26.173Z,-1.27
2022-12-17T17:45:47.065Z,-1.26
2022-12-17T17:51:12.260Z,-1.42
2022-12-17T17:56:35.457Z,-1.30
2022-12-17T18:01:56.651Z,-1.30
2022-12-17T18:07:25.152Z,-1.38
2022-12-17T18:13:05.230Z,-1.30
2022-12-17T18:18:25.985Z,-1.47
2022-12-17T18:23:48.557Z,-1.70
2022-12-17T18:29:17.917Z,-1.60
2022-12-17T18:34:38.836Z,-1.60
2022-12-17T18:39:59.687Z,-1.59
2022-12-17T18:45:20.559Z,-1.55
2022-12-17T18:50:41.466Z,-1.84
2022-12-17T18:56:12.183Z,-1.80
2022-12-17T19:01:36.421Z,-1.68
2022-12-17T19:06:57.096Z,-1.62
2022-12-17T19:12:18.386Z,-1.69
2022-12-17T19:17:39.154Z,-1.79
2022-12-17T19:23:00.120Z,-1.98
2022-12-17T19:28:21.048Z,-2.10
2022-12-17T19:33:42.564Z,-2.36
2022-12-17T19:39:06.457Z,-2.35
2022-12-17T19:44:27.334Z,-2.28
2022-12-17T19:49:48.324Z,-2.31
2022-12-17T19:55:09.608Z,-2.25
2022-12-17T20:00:30.530Z,-2.40
2022-12-17T20:05:52.109Z,-2.34
2022-12-17T20:11:34.837Z,-2.09
2022-12-17T20:16:58.446Z,-2.25
2022-12-17T20:22:19.423Z,-2.25
2022-12-17T20:27:40.107Z,-2.28
2022-12-17T20:33:00.868Z,-2.27
2022-12-17T20:38:22.254Z,-2.14
2022-12-17T20:43:43.479Z,-2.32
2022-12-17T20:49:05.649Z,-2.55
2022-12-17T20:54:26.415Z,-2.77
2022-12-17T20:59:47.403Z,-2.79
2022-12-17T21:05:08.439Z,-2.94
2022-12-17T21:10:29.465Z,-2.98
2022-12-17T21:15:51.031Z,-3.20
2022-12-17T21:21:16.942Z,-3.01
2022-12-17T21:26:41.787Z,-2.80
2022-12-17T21:32:03.350Z,-2.80
2022-12-17T21:37:24.219Z,-2.74
2022-12-17T21:43:03.116Z,-3.10
2022-12-17T21:48:24.782Z,-3.18
2022-12-17T21:53:46.081Z,-3.26
2022-12-17T21:59:06.963Z,-3.53
2022-12-17T22:04:27.748Z,-3.63
2022-12-17T22:10:06.022Z,-3.55
2022-12-17T22:15:34.991Z,-3.30
2022-12-17T22:21:09.460Z,-3.30
2022-12-17T22:26:30.281Z,-3.29
2022-12-17T22:32:09.686Z,-3.35
2022-12-17T22:39:17.949Z,-3.62
2022-12-17T22:44:37.805Z,-3.75
2022-12-17T22:49:11.329Z,-3.74
2022-12-17T22:54:32.163Z,-3.98
2022-12-17T22:59:53.569Z,-4.15
2022-12-17T23:05:14.775Z,-4.10
2022-12-17T23:10:35.458Z,-4.09
2022-12-17T23:15:56.288Z,-3.98
2022-12-17T23:21:25.479Z,-4.03
2022-12-17T23:26:46.497Z,-4.09
2022-12-17T23:32:07.283Z,-4.33
2022-12-17T23:37:28.128Z,-4.84
2022-12-17T23:42:49.190Z,-4.85
2022-12-17T23:48:09.965Z,-4.98
2022-12-17T23:53:32.395Z,-4.69
2022-12-17T23:59:01.123Z,-5.01
